Eldred, Pennsylvania
Current Conditions -  °F | °C
As of 10:53 PM on Sunday 23 Nov 2014 (Local Time) from KBFD Reporting Station
Light Rain Light Rain  
Wind Chill: 40°   Ceiling: 1800
Heat Index: 46°   Visibility: 8mi
Dew Point: 38°   Wind: 15mph
Humidity: 73%   Direction: 150°SSE
Pressure: 29.71"   Gusts: 26mph
Location:  41.96°N, 78.39°W
Report Text: KBFD 240353Z AUTO 15013G23KT 8SM -RA OVC018 08/03 A2971 RMK AO2 PK WND 15027/0256 RAB32 SLP066 P0000 T00780033
Loading
Personal Weather Stations






























Interactive Weather Map New forecast layout! Learn more

10-Day Weather Forecast

Advertisements
Track Severe Weather on mobile